Time;durP1;ratioP1;P1;durP2;ratioP2;P2;SDS_P1;SDS_P2;PMS_P1;PMS_P2;Temp;Humidity;BMP_temperature;BMP_pressure;BME280_temperature;BME280_humidity;BME280_pressure;Samples;Min_cycle;Max_cycle;Signal;HPM_P1;HPM_P2
2021/11/12 00:13:05;;;;;;;64.88;27.73;;;9.10;99.90;;;;;;5032837;28;20163;-81
2021/11/12 00:15:36;;;;;;;62.70;28.88;;;9.10;99.90;;;;;;5030840;28;20485;-81
2021/11/12 00:18:03;;;;;;;69.68;28.48;;;9.10;99.90;;;;;;5032422;28;20037;-81
2021/11/12 00:20:29;;;;;;;61.83;28.88;;;9.10;99.90;;;;;;5031196;28;20120;-81
2021/11/12 00:22:57;;;;;;;72.70;30.98;;;9.10;99.90;;;;;;5047301;28;20084;-81
2021/11/12 00:25:23;;;;;;;72.43;29.05;;;9.10;99.90;;;;;;5031186;28;20033;-81
2021/11/12 00:27:49;;;;;;;59.30;27.00;;;9.10;99.90;;;;;;5032193;28;20034;-81
2021/11/12 00:30:46;;;;;;;65.47;26.42;;;9.10;99.90;;;;;;5032318;28;20661;-81
2021/11/12 00:38:45;;;;;;;65.95;28.33;;;9.10;99.90;;;;;;5034861;28;20029;-80
2021/11/12 00:43:45;;;;;;;69.90;28.20;;;9.00;99.90;;;;;;5034120;28;20033;-82
2021/11/12 00:48:51;;;;;;;78.40;30.75;;;9.00;99.90;;;;;;5033967;28;20030;-81
2021/11/12 00:56:15;;;;;;;70.72;30.77;;;8.90;99.90;;;;;;5036931;28;20060;-81
2021/11/12 00:58:41;;;;;;;64.28;29.15;;;8.90;99.90;;;;;;5035424;28;20438;-82
2021/11/12 01:01:07;;;;;;;72.97;31.38;;;8.90;99.90;;;;;;5036962;28;20014;-83
2021/11/12 01:03:33;;;;;;;70.53;30.50;;;8.90;99.90;;;;;;5058164;28;20122;-82
2021/11/12 01:05:59;;;;;;;72.43;30.42;;;8.90;99.90;;;;;;5032539;28;20725;-83
2021/11/12 01:08:25;;;;;;;70.45;31.00;;;8.90;99.90;;;;;;5035941;28;20072;-82
2021/11/12 01:10:50;;;;;;;71.95;30.08;;;8.90;99.90;;;;;;5039471;28;20026;-81
2021/11/12 01:13:16;;;;;;;72.93;30.45;;;8.90;99.90;;;;;;5035149;28;20022;-83
2021/11/12 01:15:41;;;;;;;75.72;31.17;;;8.90;99.90;;;;;;5048316;28;20025;-83
2021/11/12 01:18:08;;;;;;;76.45;32.53;;;8.90;99.90;;;;;;5033547;28;20025;-83
2021/11/12 01:20:33;;;;;;;78.25;32.10;;;8.90;99.90;;;;;;5034888;28;20045;-82
2021/11/12 01:22:59;;;;;;;70.88;29.65;;;8.90;99.90;;;;;;5050261;28;20022;-81
2021/11/12 01:25:25;;;;;;;67.28;27.73;;;8.90;99.90;;;;;;5034802;28;20026;-82
2021/11/12 01:27:51;;;;;;;66.78;29.70;;;8.90;99.90;;;;;;5048819;28;20048;-81
2021/11/12 01:30:17;;;;;;;72.18;30.17;;;8.90;99.90;;;;;;5032633;28;20025;-82
2021/11/12 01:32:44;;;;;;;87.43;34.20;;;8.90;99.90;;;;;;5032732;28;20032;-81
2021/11/12 01:35:11;;;;;;;70.70;30.48;;;8.90;99.90;;;;;;5032479;28;20057;-82
2021/11/12 01:37:40;;;;;;;83.15;33.08;;;8.90;99.90;;;;;;5033273;28;20032;-80
2021/11/12 01:40:07;;;;;;;74.20;29.92;;;8.90;99.90;;;;;;5033002;28;20018;-81
2021/11/12 01:53:51;;;;;;;77.03;31.70;;;8.90;99.90;;;;;;5032584;28;20022;-83
2021/11/12 02:01:50;;;;;;;80.38;30.35;;;8.90;99.90;;;;;;5032928;28;20087;-82
2021/11/12 02:04:18;;;;;;;;;;;8.90;99.90;;;;;;5031819;28;20033;-81
2021/11/12 02:06:44;;;;;;;59.58;26.73;;;8.90;99.90;;;;;;5050182;28;19909;-82
2021/11/12 02:09:21;;;;;;;81.38;29.48;;;8.90;99.90;;;;;;5034594;28;20439;-82
2021/11/12 02:15:09;;;;;;;71.97;29.30;;;8.90;99.90;;;;;;4981030;28;20051;-82
2021/11/12 02:17:37;;;;;;;72.82;29.35;;;8.90;99.90;;;;;;5034711;28;20029;-81
2021/11/12 02:22:39;;;;;;;67.85;28.35;;;8.90;99.90;;;;;;5035298;28;20048;-82
2021/11/12 02:25:09;;;;;;;56.13;25.92;;;8.90;99.90;;;;;;5034795;28;20028;-80
2021/11/12 02:27:51;;;;;;;69.05;27.05;;;8.90;99.90;;;;;;5033510;28;20055;-81
2021/11/12 02:30:25;;;;;;;65.90;27.77;;;8.90;99.90;;;;;;5052510;28;20017;-81
2021/11/12 02:33:08;;;;;;;68.90;28.73;;;8.90;99.90;;;;;;5076041;28;20014;-80
2021/11/12 02:35:36;;;;;;;70.45;29.05;;;8.90;99.90;;;;;;5085559;28;20032;-80
2021/11/12 02:38:04;;;;;;;70.45;28.65;;;8.90;99.90;;;;;;5060712;28;20022;-80
2021/11/12 02:40:31;;;;;;;73.25;30.30;;;8.90;99.90;;;;;;5025171;28;20513;-82
2021/11/12 02:42:57;;;;;;;62.67;26.92;;;8.90;99.90;;;;;;5037694;28;20072;-82
2021/11/12 02:45:23;;;;;;;63.53;26.98;;;8.90;99.90;;;;;;5037037;28;20026;-83
2021/11/12 02:47:48;;;;;;;71.03;29.00;;;8.80;99.90;;;;;;5052652;28;20616;-81
2021/11/12 02:50:15;;;;;;;59.72;25.95;;;8.80;99.90;;;;;;5035837;28;20055;-83
2021/11/12 02:52:42;;;;;;;58.95;24.42;;;8.80;99.90;;;;;;5035203;28;20029;-82
2021/11/12 02:55:08;;;;;;;70.30;27.42;;;8.80;99.90;;;;;;5037161;28;20053;-82
2021/11/12 02:57:35;;;;;;;76.07;29.13;;;8.90;99.90;;;;;;5031632;28;20049;-81
2021/11/12 03:00:04;;;;;;;66.90;28.60;;;8.90;99.90;;;;;;5063064;23;20048;-55
2021/11/12 03:02:31;;;;;;;69.70;27.63;;;8.90;99.90;;;;;;5069532;28;20051;-56
2021/11/12 03:04:57;;;;;;;74.13;26.42;;;8.80;99.90;;;;;;5067177;28;20036;-52
2021/11/12 03:07:23;;;;;;;71.90;27.50;;;8.90;99.90;;;;;;5049389;28;20024;-53
2021/11/12 03:09:48;;;;;;;68.07;26.50;;;8.80;99.90;;;;;;5067440;28;20031;-57
2021/11/12 03:12:14;;;;;;;69.80;28.15;;;8.80;99.90;;;;;;5052418;28;20468;-53
2021/11/12 03:14:40;;;;;;;59.83;26.73;;;8.80;99.90;;;;;;5049804;28;20021;-56
2021/11/12 03:17:06;;;;;;;62.92;26.13;;;8.80;99.90;;;;;;5060960;28;20021;-54
2021/11/12 03:19:33;;;;;;;68.32;25.83;;;8.80;99.90;;;;;;5048961;28;20094;-54
2021/11/12 03:22:08;;;;;;;54.05;24.25;;;8.70;99.90;;;;;;5050623;28;20502;-56
2021/11/12 03:24:40;;;;;;;63.35;27.08;;;8.70;99.90;;;;;;5067197;28;20025;-56
2021/11/12 04:02:31;;;;;;;47.20;24.20;;;8.70;99.90;;;;;;5063104;28;20083;-54
2021/11/12 04:05:15;;;;;;;59.35;25.77;;;8.70;99.90;;;;;;5048673;28;20133;-55
2021/11/12 04:18:48;;;;;;;47.30;22.63;;;8.70;99.90;;;;;;5053979;28;20039;-52
2021/11/12 05:10:56;;;;;;;52.08;24.88;;;8.70;99.90;;;;;;5059611;28;20086;-55
2021/11/12 05:13:51;;;;;;;52.88;26.67;;;8.70;99.90;;;;;;5052714;28;20060;-57
2021/11/12 05:33:35;;;;;;;55.22;26.38;;;8.60;99.90;;;;;;5051312;28;20416;-53
2021/11/12 05:46:21;;;;;;;43.13;22.73;;;8.50;99.90;;;;;;5058165;28;20049;-54
2021/11/12 05:51:36;;;;;;;58.03;22.45;;;8.40;99.90;;;;;;5063230;28;20105;-56
2021/11/12 05:57:06;;;;;;;51.50;21.33;;;8.40;99.90;;;;;;5000743;28;20032;-53
2021/11/12 05:59:31;;;;;;;50.33;21.20;;;8.40;99.90;;;;;;5052830;28;20029;-56
2021/11/12 06:01:57;;;;;;;55.42;22.52;;;8.40;99.90;;;;;;5066279;28;20058;-56
2021/11/12 06:04:23;;;;;;;41.10;20.83;;;8.30;99.90;;;;;;5068275;28;20020;-56
2021/11/12 06:06:49;;;;;;;34.65;20.60;;;8.30;99.90;;;;;;5070075;28;20028;-56
2021/11/12 06:09:15;;;;;;;38.60;21.33;;;8.30;99.90;;;;;;5061570;28;20439;-56
2021/11/12 06:11:42;;;;;;;41.28;19.80;;;8.30;99.90;;;;;;5050601;28;20078;-55
2021/11/12 06:14:08;;;;;;;42.72;20.15;;;8.30;99.90;;;;;;5051723;28;20035;-57
2021/11/12 06:16:34;;;;;;;39.15;18.40;;;8.30;99.90;;;;;;5051846;28;20036;-53
2021/11/12 06:19:00;;;;;;;38.15;16.58;;;8.20;99.90;;;;;;5051440;28;20028;-54
2021/11/12 06:21:27;;;;;;;34.05;16.23;;;8.20;99.90;;;;;;5069076;28;20052;-53
2021/11/12 06:23:53;;;;;;;31.02;15.00;;;8.20;99.90;;;;;;5067427;28;20043;-56
2021/11/12 06:26:19;;;;;;;26.58;13.98;;;8.10;99.90;;;;;;5058285;28;20423;-54
2021/11/12 06:28:45;;;;;;;29.52;14.52;;;8.10;99.90;;;;;;5060050;28;20082;-54
2021/11/12 06:31:11;;;;;;;54.45;15.75;;;8.10;99.90;;;;;;5053061;28;20455;-57
2021/11/12 06:33:37;;;;;;;50.38;15.93;;;8.10;99.90;;;;;;5050485;28;20021;-52
2021/11/12 06:36:02;;;;;;;24.67;12.88;;;8.00;99.90;;;;;;5050366;28;20029;-56
2021/11/12 06:38:31;;;;;;;22.80;13.77;;;8.00;99.90;;;;;;5066661;28;20051;-53
2021/11/12 06:40:58;;;;;;;48.60;16.33;;;7.90;99.90;;;;;;5053724;28;20396;-55
2021/11/12 06:51:26;;;;;;;29.20;15.63;;;7.80;99.90;;;;;;5069014;28;20122;-51
2021/11/12 06:53:54;;;;;;;44.65;17.92;;;7.80;99.90;;;;;;5065048;28;20021;-51
2021/11/12 06:56:22;;;;;;;51.28;17.60;;;7.80;99.90;;;;;;5049853;28;20025;-53
2021/11/12 06:58:47;;;;;;;40.03;17.20;;;7.80;99.90;;;;;;5065079;28;20051;-53
2021/11/12 07:01:13;;;;;;;24.95;16.70;;;7.70;99.90;;;;;;5067330;28;20064;-52
2021/11/12 07:03:39;;;;;;;28.10;17.98;;;7.70;99.90;;;;;;5069404;28;20107;-53
2021/11/12 07:06:05;;;;;;;26.90;17.27;;;7.70;99.90;;;;;;5051708;28;20029;-52
2021/11/12 07:08:30;;;;;;;31.35;19.02;;;7.70;99.90;;;;;;5061135;28;20060;-54
2021/11/12 07:10:57;;;;;;;31.45;17.70;;;7.80;99.90;;;;;;5062897;28;20103;-54
2021/11/12 07:13:25;;;;;;;28.92;18.10;;;7.80;99.90;;;;;;5069605;28;20036;-51
2021/11/12 07:15:52;;;;;;;54.85;20.05;;;7.80;99.90;;;;;;5065291;28;20615;-51
2021/11/12 07:18:20;;;;;;;33.70;19.23;;;7.70;99.90;;;;;;5043194;28;20474;-51
2021/11/12 07:20:47;;;;;;;50.45;20.48;;;7.80;99.90;;;;;;5063425;28;20054;-56
2021/11/12 07:23:14;;;;;;;36.25;18.23;;;7.70;99.90;;;;;;5062945;28;20566;-56
2021/11/12 07:25:41;;;;;;;31.45;18.75;;;7.70;99.90;;;;;;5049982;28;20060;-57
2021/11/12 07:28:08;;;;;;;39.20;19.10;;;7.80;99.90;;;;;;5049651;28;20484;-55
2021/11/12 07:30:36;;;;;;;31.95;19.40;;;7.80;99.90;;;;;;5049815;28;20870;-51
2021/11/12 07:33:01;;;;;;;32.75;19.02;;;7.70;99.90;;;;;;5049564;28;20066;-54
2021/11/12 07:35:33;;;;;;;41.38;18.88;;;7.80;99.90;;;;;;5049069;28;20095;-53
2021/11/12 07:38:00;;;;;;;38.88;18.75;;;7.70;99.90;;;;;;5048886;28;20021;-56
2021/11/12 07:48:39;;;;;;;43.13;19.30;;;7.80;99.90;;;;;;5048686;28;20031;-52
2021/11/12 07:51:07;;;;;;;40.53;19.48;;;7.80;99.90;;;;;;5048155;28;20025;-54
2021/11/12 07:53:33;;;;;;;36.63;17.45;;;7.80;99.90;;;;;;5049135;28;20576;-53
2021/11/12 07:55:58;;;;;;;33.92;17.55;;;7.80;99.90;;;;;;5051426;28;20095;-57
2021/11/12 07:58:24;;;;;;;38.00;18.35;;;7.80;99.90;;;;;;5069101;28;20681;-52
2021/11/12 08:00:49;;;;;;;36.75;17.45;;;7.90;99.90;;;;;;5067541;28;20028;-55
2021/11/12 08:03:17;;;;;;;36.65;16.20;;;7.90;99.90;;;;;;5069169;28;20479;-56
2021/11/12 08:05:45;;;;;;;32.97;16.30;;;7.90;99.90;;;;;;5063906;28;20040;-58
2021/11/12 08:08:14;;;;;;;40.35;17.63;;;7.90;99.90;;;;;;5048527;28;20021;-57
2021/11/12 08:11:08;;;;;;;38.25;17.35;;;7.90;99.90;;;;;;5049068;28;20021;-55
2021/11/12 08:13:52;;;;;;;37.63;17.30;;;7.90;99.90;;;;;;5048508;28;20048;-55
2021/11/12 08:19:05;;;;;;;36.72;18.02;;;8.00;99.90;;;;;;5048370;28;20025;-57
2021/11/12 08:24:15;;;;;;;35.85;17.17;;;8.00;99.90;;;;;;5068431;28;20031;-56
2021/11/12 08:26:55;;;;;;;32.92;15.90;;;8.00;99.90;;;;;;5068452;28;20039;-55
2021/11/12 08:29:32;;;;;;;40.38;16.23;;;8.10;99.90;;;;;;5057182;28;20029;-56
2021/11/12 08:40:03;;;;;;;39.88;18.13;;;8.20;99.90;;;;;;5049629;28;20261;-55
2021/11/12 08:42:48;;;;;;;38.10;16.95;;;8.20;99.90;;;;;;5048113;28;20481;-57
2021/11/12 08:47:45;;;;;;;29.15;14.43;;;8.20;99.90;;;;;;5048006;28;20684;-55
2021/11/12 08:50:19;;;;;;;30.35;13.23;;;8.20;99.90;;;;;;5048654;28;20032;-56
2021/11/12 08:52:48;;;;;;;31.33;13.95;;;8.20;99.90;;;;;;5047370;28;20052;-53
2021/11/12 08:55:15;;;;;;;32.25;15.43;;;8.30;99.90;;;;;;5046578;28;20017;-55
2021/11/12 08:57:40;;;;;;;34.50;15.43;;;8.30;99.90;;;;;;5063949;28;20028;-51
2021/11/12 09:00:08;;;;;;;27.05;12.98;;;8.30;99.90;;;;;;5058924;28;20033;-55
2021/11/12 09:02:34;;;;;;;29.80;14.95;;;8.30;99.90;;;;;;5031281;28;20507;-54
2021/11/12 09:05:00;;;;;;;32.88;13.70;;;8.30;99.90;;;;;;5053802;28;20037;-54
2021/11/12 09:07:26;;;;;;;25.13;11.77;;;8.40;99.90;;;;;;5051717;28;20028;-56
2021/11/12 09:09:56;;;;;;;29.17;11.50;;;8.40;99.90;;;;;;5052925;28;20029;-55
2021/11/12 09:12:24;;;;;;;25.23;13.18;;;8.40;99.90;;;;;;5034835;28;20017;-57
2021/11/12 09:14:51;;;;;;;27.33;11.95;;;8.40;99.90;;;;;;5067529;28;20050;-55
2021/11/12 09:17:19;;;;;;;29.20;11.77;;;8.40;99.90;;;;;;5072541;28;20016;-53
2021/11/12 09:19:50;;;;;;;21.42;11.38;;;8.40;99.90;;;;;;5070197;28;20162;-51
2021/11/12 09:22:18;;;;;;;24.50;12.88;;;8.40;99.90;;;;;;5072727;28;20029;-57
2021/11/12 09:24:44;;;;;;;24.83;13.85;;;8.50;99.90;;;;;;5071268;28;20098;-54
2021/11/12 09:27:11;;;;;;;25.30;12.85;;;8.50;99.90;;;;;;5071632;28;20075;-53
2021/11/12 09:29:37;;;;;;;27.20;12.60;;;8.50;99.90;;;;;;5070288;28;20025;-53
2021/11/12 09:32:04;;;;;;;29.38;13.57;;;8.50;99.90;;;;;;5072148;28;20055;-54
2021/11/12 09:34:34;;;;;;;29.48;13.15;;;8.50;99.90;;;;;;5048323;28;20025;-55
2021/11/12 09:37:01;;;;;;;29.60;14.43;;;8.50;99.90;;;;;;5067990;28;20024;-57
2021/11/12 09:39:27;;;;;;;31.20;14.35;;;8.50;99.90;;;;;;5071183;28;20103;-53
2021/11/12 09:41:52;;;;;;;25.42;12.45;;;8.50;99.90;;;;;;5066497;28;20038;-54
2021/11/12 09:44:19;;;;;;;27.67;12.52;;;8.50;99.90;;;;;;5071622;28;20031;-58
2021/11/12 09:46:45;;;;;;;27.13;12.98;;;8.50;99.90;;;;;;5071314;28;20024;-54
2021/11/12 09:49:10;;;;;;;28.17;14.20;;;8.50;99.90;;;;;;5069741;28;20103;-55
2021/11/12 09:51:36;;;;;;;30.45;14.52;;;8.60;99.90;;;;;;5033744;28;20017;-52
2021/11/12 09:54:03;;;;;;;27.67;12.65;;;8.60;99.90;;;;;;5051044;28;20231;-54
2021/11/12 09:56:29;;;;;;;25.92;13.75;;;8.60;99.90;;;;;;5051464;28;20048;-54
2021/11/12 09:58:54;;;;;;;25.58;12.15;;;8.60;99.90;;;;;;5051855;28;20021;-57
2021/11/12 10:01:27;;;;;;;26.63;14.05;;;8.60;99.90;;;;;;5052741;28;20040;-52
2021/11/12 10:03:53;;;;;;;22.33;12.38;;;8.70;99.90;;;;;;5035836;28;20028;-56
2021/11/12 10:06:24;;;;;;;29.13;12.63;;;8.70;99.90;;;;;;5051398;28;20033;-57
2021/11/12 10:08:52;;;;;;;23.58;14.02;;;8.70;99.90;;;;;;5051582;28;20051;-55
2021/11/12 10:11:23;;;;;;;21.45;11.82;;;8.70;99.90;;;;;;5068906;28;20062;-57
2021/11/12 10:13:58;;;;;;;29.90;14.98;;;8.70;99.90;;;;;;5070798;28;20029;-56
2021/11/12 10:16:35;;;;;;;28.33;14.80;;;8.70;99.90;;;;;;5069212;28;20025;-55
2021/11/12 10:19:12;;;;;;;;;;;8.80;99.90;;;;;;5071600;28;20025;-55
2021/11/12 10:21:40;;;;;;;31.05;16.25;;;8.80;99.90;;;;;;5070655;28;20570;-54
2021/11/12 10:24:15;;;;;;;30.52;16.52;;;8.80;99.90;;;;;;5071031;28;20074;-55
2021/11/12 10:26:40;;;;;;;26.27;15.10;;;8.80;99.90;;;;;;5064307;28;20389;-54
2021/11/12 10:29:09;;;;;;;27.60;15.15;;;8.80;99.90;;;;;;5069974;28;20031;-57
2021/11/12 10:31:42;;;;;;;27.75;15.35;;;8.90;99.90;;;;;;5050760;28;20028;-56
2021/11/12 10:34:13;;;;;;;23.08;14.27;;;8.90;99.90;;;;;;5050238;28;20025;-51
2021/11/12 10:36:52;;;;;;;24.65;13.73;;;8.90;99.90;;;;;;5051935;28;20043;-55
2021/11/12 10:39:32;;;;;;;23.67;13.68;;;9.00;99.90;;;;;;5035827;28;20085;-57
2021/11/12 10:42:04;;;;;;;20.30;13.05;;;9.00;99.90;;;;;;5062163;28;20024;-54
2021/11/12 10:44:32;;;;;;;21.33;12.50;;;9.10;99.90;;;;;;5050308;28;20098;-56
2021/11/12 10:47:02;;;;;;;18.05;11.45;;;9.10;99.90;;;;;;5058656;28;20066;-54
2021/11/12 10:49:37;;;;;;;22.67;12.15;;;9.20;99.90;;;;;;5050187;28;20079;-51
2021/11/12 10:52:15;;;;;;;19.20;12.43;;;9.20;99.90;;;;;;5051702;28;20621;-52
2021/11/12 10:54:50;;;;;;;16.50;10.70;;;9.20;99.90;;;;;;5054809;28;20078;-52
2021/11/12 10:57:18;;;;;;;17.45;10.88;;;9.20;99.90;;;;;;5069668;28;20052;-55
2021/11/12 10:59:54;;;;;;;21.80;13.60;;;9.30;99.90;;;;;;5067899;28;20078;-56
2021/11/12 11:02:24;;;;;;;;;;;9.30;99.90;;;;;;5066441;28;20107;-55
2021/11/12 11:04:49;;;;;;;17.27;11.63;;;9.30;99.90;;;;;;5058904;28;19922;-55
2021/11/12 11:07:22;;;;;;;15.48;10.65;;;9.30;99.90;;;;;;5067754;28;20029;-56
2021/11/12 11:09:48;;;;;;;17.63;11.48;;;9.30;99.90;;;;;;5050034;28;20057;-57
2021/11/12 11:12:37;;;;;;;14.93;10.57;;;9.30;99.90;;;;;;5050858;28;20520;-57
2021/11/12 11:15:12;;;;;;;16.15;10.20;;;9.40;99.90;;;;;;5049924;28;20033;-57
2021/11/12 11:17:45;;;;;;;13.57;9.50;;;9.40;99.90;;;;;;5049732;28;20428;-53
2021/11/12 11:20:17;;;;;;;12.60;8.85;;;9.40;99.90;;;;;;5049808;28;20025;-56
2021/11/12 11:22:56;;;;;;;12.07;7.88;;;9.40;99.90;;;;;;5049517;28;20078;-56
2021/11/12 11:25:23;;;;;;;12.38;8.75;;;9.30;99.90;;;;;;5049038;28;20444;-54
2021/11/12 11:27:49;;;;;;;11.20;8.60;;;9.40;99.90;;;;;;5049464;28;20496;-56
2021/11/12 11:30:15;;;;;;;10.02;8.15;;;9.40;99.90;;;;;;5049615;28;20119;-57
2021/11/12 11:32:46;;;;;;;12.73;9.32;;;9.40;99.90;;;;;;5049378;28;20195;-55
2021/11/12 11:35:13;;;;;;;11.63;8.90;;;9.40;99.90;;;;;;5049092;28;20087;-54
2021/11/12 11:37:40;;;;;;;10.30;8.15;;;9.40;99.90;;;;;;5048857;28;20036;-52
2021/11/12 11:40:09;;;;;;;10.30;8.82;;;9.50;99.90;;;;;;5049123;28;20483;-53
2021/11/12 11:42:42;;;;;;;8.45;7.50;;;9.50;99.90;;;;;;5050244;28;20028;-57
2021/11/12 11:45:08;;;;;;;10.07;8.15;;;9.50;99.90;;;;;;5049415;28;20025;-51
2021/11/12 11:47:35;;;;;;;10.77;8.55;;;9.60;99.90;;;;;;5048939;28;20754;-56
2021/11/12 11:50:01;;;;;;;9.50;7.45;;;9.50;99.90;;;;;;5050502;28;20475;-51
2021/11/12 11:52:29;;;;;;;14.10;8.57;;;9.60;99.90;;;;;;5049243;28;20021;-53
2021/11/12 11:54:55;;;;;;;10.15;7.35;;;9.60;99.90;;;;;;5055022;28;20048;-55
2021/11/12 11:57:23;;;;;;;11.60;7.90;;;9.60;99.90;;;;;;5063590;28;20043;-57
2021/11/12 12:00:14;;;;;;;8.65;7.03;;;9.60;99.90;;;;;;5048493;28;20029;-54
2021/11/12 12:02:40;;;;;;;9.10;7.78;;;9.60;99.90;;;;;;5048758;28;20040;-57
2021/11/12 12:05:07;;;;;;;11.35;7.93;;;9.60;99.90;;;;;;5049790;28;20125;-57
2021/11/12 12:07:43;;;;;;;8.80;6.88;;;9.60;99.90;;;;;;5055434;28;20028;-57
2021/11/12 12:10:18;;;;;;;9.23;7.10;;;9.70;99.90;;;;;;5048750;28;20033;-55
2021/11/12 12:12:58;;;;;;;10.80;7.38;;;9.70;99.90;;;;;;5048540;28;20074;-56
2021/11/12 12:15:24;;;;;;;10.45;8.25;;;9.60;99.90;;;;;;5048485;28;20043;-56
2021/11/12 12:18:05;;;;;;;10.10;7.32;;;9.60;99.90;;;;;;5058544;28;20028;-56
2021/11/12 13:23:11;;;;;;;12.05;7.25;;;9.50;99.90;;;;;;5067630;28;20469;-57
2021/11/12 13:25:43;;;;;;;9.90;6.93;;;9.60;99.90;;;;;;5066670;28;20025;-58
2021/11/12 13:28:21;;;;;;;8.35;6.75;;;9.60;99.90;;;;;;5067599;28;20024;-59
2021/11/12 13:30:49;;;;;;;10.15;6.72;;;9.60;99.90;;;;;;5047793;28;20075;-57
2021/11/12 13:33:32;;;;;;;10.23;6.93;;;9.60;99.90;;;;;;5047709;28;20023;-56
2021/11/12 13:36:04;;;;;;;12.10;7.90;;;9.60;99.90;;;;;;5047617;28;20032;-55
2021/11/12 13:38:42;;;;;;;10.98;7.95;;;9.60;99.90;;;;;;5051201;28;20020;-53
2021/11/12 13:41:11;;;;;;;10.98;7.57;;;9.50;99.90;;;;;;5067890;28;20037;-58
2021/11/12 13:43:41;;;;;;;10.90;7.72;;;9.60;99.90;;;;;;5066491;28;20640;-58
2021/11/12 13:46:08;;;;;;;12.90;7.13;;;9.50;99.90;;;;;;5043098;28;20819;-54
2021/11/12 13:48:52;;;;;;;11.05;7.13;;;9.50;99.90;;;;;;5047061;28;20055;-57
2021/11/12 13:51:25;;;;;;;8.95;7.10;;;9.50;99.90;;;;;;5050398;28;20381;-57
2021/11/12 13:53:52;;;;;;;8.98;6.60;;;9.40;99.90;;;;;;5049717;28;20025;-58
2021/11/12 13:56:18;;;;;;;7.93;6.07;;;9.50;99.90;;;;;;5052035;28;20009;-58
2021/11/12 13:58:43;;;;;;;10.25;6.38;;;9.40;99.90;;;;;;5051339;28;20032;-58
2021/11/12 14:01:21;;;;;;;9.27;6.07;;;9.40;99.90;;;;;;5034278;28;20048;-56
2021/11/12 14:03:48;;;;;;;7.20;5.18;;;9.40;99.90;;;;;;5050865;28;20550;-57
2021/11/12 14:06:14;;;;;;;9.18;5.95;;;9.40;99.90;;;;;;5063693;28;20064;-57
2021/11/12 14:08:49;;;;;;;7.00;5.05;;;9.40;99.90;;;;;;5032557;28;20021;-58
2021/11/12 14:11:22;;;;;;;8.30;5.40;;;9.30;99.90;;;;;;5056581;28;20036;-54
2021/11/12 14:13:50;;;;;;;7.38;5.57;;;9.30;99.90;;;;;;5051365;28;20056;-53
2021/11/12 14:16:25;;;;;;;6.72;5.20;;;9.30;99.90;;;;;;5051367;28;20427;-58
2021/11/12 14:27:08;;;;;;;10.00;5.32;;;9.20;99.90;;;;;;5051044;28;20687;-53
2021/11/12 14:32:34;;;;;;;6.03;4.35;;;9.20;99.90;;;;;;5050173;28;20036;-54
2021/11/12 14:38:52;;;;;;;6.07;3.42;;;9.10;99.90;;;;;;5051278;28;20043;-57
2021/11/12 14:41:12;;;;;;;4.97;3.70;;;9.10;99.90;;;;;;5042262;28;20041;-54
2021/11/12 14:48:59;;;;;;;5.22;3.30;;;8.90;99.90;;;;;;5069974;28;20388;-57
2021/11/12 14:51:35;;;;;;;6.10;3.72;;;8.90;99.90;;;;;;5056826;28;20123;-57
2021/11/12 14:54:10;;;;;;;6.15;4.32;;;8.90;99.90;;;;;;5031328;28;20018;-56
2021/11/12 14:56:36;;;;;;;5.93;4.40;;;8.80;99.90;;;;;;5051373;28;20025;-57
2021/11/12 14:59:05;;;;;;;5.30;4.05;;;8.80;99.90;;;;;;5032148;28;20515;-57
2021/11/12 15:01:32;;;;;;;3.67;3.33;;;8.70;99.90;;;;;;5050418;28;20033;-58
2021/11/12 15:03:59;;;;;;;6.47;4.07;;;8.70;99.90;;;;;;5049365;28;20017;-57
2021/11/12 15:06:26;;;;;;;6.22;4.35;;;8.70;99.90;;;;;;5049551;28;20025;-58
2021/11/12 15:11:23;;;;;;;6.43;4.45;;;8.60;99.90;;;;;;5050848;28;20143;-56
2021/11/12 15:13:54;;;;;;;6.47;5.05;;;8.60;99.90;;;;;;5036234;28;20416;-55
2021/11/12 15:16:24;;;;;;;7.18;5.20;;;8.50;99.90;;;;;;5034633;28;20028;-57
2021/11/12 15:18:54;;;;;;;7.40;4.97;;;8.50;99.90;;;;;;5049521;28;20583;-54
2021/11/12 15:22:14;;;;;;;6.65;5.22;;;8.60;99.90;;;;;;5032626;28;20039;-57
2021/11/12 15:26:55;;;;;;;6.15;5.47;;;8.40;99.90;;;;;;5069605;28;20455;-55
2021/11/12 15:29:29;;;;;;;6.85;5.13;;;8.50;99.90;;;;;;5050878;28;20035;-57
2021/11/12 15:32:06;;;;;;;8.35;5.65;;;8.40;99.90;;;;;;5053368;28;20029;-56
2021/11/12 15:34:38;;;;;;;8.90;6.68;;;8.40;99.90;;;;;;5049533;28;20028;-55
2021/11/12 15:39:56;;;;;;;8.57;6.10;;;8.30;99.90;;;;;;5035004;28;20090;-55
2021/11/12 15:44:51;;;;;;;12.00;8.98;;;8.30;99.90;;;;;;5069041;28;20031;-57
2021/11/12 15:49:43;;;;;;;9.65;7.47;;;8.30;99.90;;;;;;5049179;28;20123;-58
2021/11/12 15:52:19;;;;;;;8.35;7.45;;;8.20;99.90;;;;;;5048253;28;20044;-54
2021/11/12 15:55:11;;;;;;;8.52;7.72;;;8.20;99.90;;;;;;5047984;28;20115;-54
2021/11/12 15:58:03;;;;;;;10.53;8.00;;;8.20;99.90;;;;;;5046695;28;20134;-57
2021/11/12 16:03:38;;;;;;;10.57;8.95;;;8.20;99.90;;;;;;5068410;28;20733;-55
2021/11/12 16:06:27;;;;;;;11.68;8.00;;;8.10;99.90;;;;;;5067269;28;20082;-57
2021/11/12 16:14:15;;;;;;;11.18;9.48;;;8.00;99.90;;;;;;5048073;28;20040;-56
2021/11/12 16:19:30;;;;;;;11.95;9.18;;;7.90;99.90;;;;;;5032652;28;20055;-57
2021/11/12 16:27:17;;;;;;;11.40;9.90;;;7.80;99.90;;;;;;5040748;28;20396;-59
2021/11/12 16:29:48;;;;;;;13.70;11.05;;;7.80;99.90;;;;;;5067379;28;20638;-57
2021/11/12 16:32:25;;;;;;;13.48;10.63;;;7.80;99.90;;;;;;5048173;28;20074;-55
2021/11/12 16:34:56;;;;;;;13.45;10.98;;;7.80;99.90;;;;;;5035591;28;20032;-58
2021/11/12 16:37:24;;;;;;;12.80;10.95;;;7.70;99.90;;;;;;5055005;28;20028;-55
2021/11/12 16:39:55;;;;;;;11.07;9.93;;;7.70;99.90;;;;;;5049663;28;20036;-56
2021/11/12 17:06:49;;;;;;;13.57;11.25;;;7.50;99.90;;;;;;5055328;28;20042;-58
2021/11/12 17:09:28;;;;;;;18.30;13.60;;;7.50;99.90;;;;;;5053102;28;20036;-58
2021/11/12 17:47:07;;;;;;;20.13;16.73;;;7.00;99.90;;;;;;5069059;28;20130;-55
2021/11/12 17:49:47;;;;;;;19.58;15.70;;;6.90;99.90;;;;;;5069403;28;20098;-58
2021/11/12 18:03:23;;;;;;;21.50;15.32;;;6.90;99.90;;;;;;5052418;28;20519;-56
2021/11/12 18:05:54;;;;;;;19.98;15.85;;;6.80;99.90;;;;;;5067223;28;20029;-56
2021/11/12 21:48:07;;;;;;;45.15;26.13;;;5.40;99.90;;;;;;5051877;28;20039;-56
2021/11/12 21:50:33;;;;;;;47.63;28.48;;;5.40;99.90;;;;;;5049890;28;20115;-57
2021/11/12 21:53:00;;;;;;;51.47;27.38;;;5.40;99.90;;;;;;5034063;28;20021;-57
2021/11/12 21:55:25;;;;;;;45.85;27.42;;;5.40;99.90;;;;;;5068783;28;20025;-58
2021/11/12 21:57:51;;;;;;;48.67;28.63;;;5.40;99.90;;;;;;5070257;28;20024;-57
2021/11/12 22:00:17;;;;;;;48.17;28.58;;;5.40;99.90;;;;;;5061256;28;20048;-57
2021/11/12 22:02:44;;;;;;;45.53;27.00;;;5.30;99.90;;;;;;5051516;28;20033;-53
2021/11/12 22:05:10;;;;;;;44.13;26.73;;;5.30;99.90;;;;;;5038563;28;20028;-59
2021/11/12 22:07:38;;;;;;;44.58;25.85;;;5.40;99.90;;;;;;5057177;28;20032;-57
2021/11/12 22:10:05;;;;;;;45.47;25.92;;;5.30;99.90;;;;;;5068236;28;20027;-57
2021/11/12 22:12:31;;;;;;;41.83;25.10;;;5.30;99.90;;;;;;5052563;28;20034;-58
2021/11/12 22:14:57;;;;;;;43.83;27.23;;;5.40;99.90;;;;;;5052081;28;20033;-57
2021/11/12 22:17:23;;;;;;;46.15;25.30;;;5.30;99.90;;;;;;5045370;28;20032;-57
2021/11/12 22:19:49;;;;;;;40.25;24.63;;;5.30;99.90;;;;;;5034792;28;20112;-58
2021/11/12 22:22:15;;;;;;;39.28;23.38;;;5.30;99.90;;;;;;5050937;28;20103;-55
2021/11/12 22:24:41;;;;;;;43.00;26.02;;;5.30;99.90;;;;;;5057934;28;20029;-58
2021/11/12 22:27:06;;;;;;;42.92;25.90;;;5.30;99.90;;;;;;5058553;28;20025;-55
2021/11/12 22:29:32;;;;;;;45.90;25.38;;;5.30;99.90;;;;;;5065583;28;20059;-58
2021/11/12 22:31:59;;;;;;;48.95;26.02;;;5.30;99.90;;;;;;5070793;28;20083;-58
2021/11/12 22:34:25;;;;;;;44.60;26.38;;;5.30;99.90;;;;;;5055576;28;20544;-56
2021/11/12 22:36:51;;;;;;;42.70;26.33;;;5.30;99.90;;;;;;5051305;28;20017;-56
2021/11/12 22:39:18;;;;;;;44.88;27.58;;;5.30;99.90;;;;;;5051779;28;20099;-58
2021/11/12 22:41:45;;;;;;;43.40;25.60;;;5.30;99.90;;;;;;5070374;28;20116;-54
2021/11/12 22:44:11;;;;;;;43.42;25.40;;;5.30;99.90;;;;;;5034709;28;20035;-56
2021/11/12 22:46:37;;;;;;;46.53;26.70;;;5.30;99.90;;;;;;5070410;28;20475;-55
2021/11/12 22:49:05;;;;;;;47.97;25.92;;;5.30;99.90;;;;;;5068414;28;20154;-57
2021/11/12 22:51:32;;;;;;;41.63;26.38;;;5.30;99.90;;;;;;5036680;28;20542;-55
2021/11/12 22:53:58;;;;;;;43.95;25.25;;;5.30;99.90;;;;;;5057786;28;20025;-59
2021/11/12 22:56:25;;;;;;;44.25;24.85;;;5.30;99.90;;;;;;5037863;28;20028;-55
2021/11/12 22:58:50;;;;;;;44.10;25.35;;;5.30;99.90;;;;;;5069019;28;20035;-56
2021/11/12 23:01:19;;;;;;;42.85;25.42;;;5.30;99.90;;;;;;5068126;28;20033;-58
2021/11/12 23:03:46;;;;;;;45.10;25.80;;;5.30;99.90;;;;;;5058372;28;20492;-57
2021/11/12 23:06:12;;;;;;;41.97;26.08;;;5.20;99.90;;;;;;5063627;28;20516;-56